Time;durP1;ratioP1;P1;durP2;ratioP2;P2;SDS_P1;SDS_P2;PMS_P1;PMS_P2;Temp;Humidity;BMP_temperature;BMP_pressure;BME280_temperature;BME280_humidity;BME280_pressure;Samples;Min_cycle;Max_cycle;Signal;HPM_P1;HPM_P2
2021/05/27 00:04:34;;;;;;;2.03;1.10;;;;;;;;;;10525465;28;20215;-71
2021/05/27 00:09:36;;;;;;;2.07;1.20;;;;;;;;;;10521511;28;20204;-71
2021/05/27 00:14:39;;;;;;;2.37;1.20;;;;;;;;;;10520812;28;20219;-71
2021/05/27 00:19:42;;;;;;;2.10;1.00;;;;;;;;;;10529727;28;20200;-70
2021/05/27 00:24:45;;;;;;;2.13;1.00;;;;;;;;;;10527195;28;20208;-72
2021/05/27 00:29:47;;;;;;;1.70;1.00;;;;;;;;;;10523071;28;20287;-72
2021/05/27 00:34:51;;;;;;;1.90;1.00;;;;;;;;;;10525874;28;20204;-71
2021/05/27 00:39:54;;;;;;;2.80;1.10;;;;;;;;;;10525413;28;20219;-71
2021/05/27 00:44:57;;;;;;;2.37;1.10;;;;;;;;;;10532100;28;20293;-73
2021/05/27 00:50:01;;;;;;;2.00;1.10;;;;;;;;;;10521778;28;20191;-68
2021/05/27 00:55:05;;;;;;;2.27;0.90;;;;;;;;;;10524427;28;20211;-71
2021/05/27 01:00:10;;;;;;;2.57;1.20;;;;;;;;;;10528710;28;20191;-71
2021/05/27 01:05:15;;;;;;;2.60;0.97;;;;;;;;;;10539204;28;20227;-69
2021/05/27 01:10:17;;;;;;;1.23;0.70;;;;;;;;;;10524145;28;20679;-72
2021/05/27 01:15:31;;;;;;;1.17;0.77;;;;;;;;;;10538902;28;20209;-70
2021/05/27 01:20:35;;;;;;;1.60;0.70;;;;;;;;;;10540859;28;20250;-68
2021/05/27 01:25:38;;;;;;;3.87;0.90;;;;;;;;;;10531680;28;20661;-71
2021/05/27 01:30:41;;;;;;;1.17;0.90;;;;;;;;;;10548609;28;20203;-68
2021/05/27 01:35:43;;;;;;;1.67;0.90;;;;;;;;;;10528400;28;20218;-70
2021/05/27 01:40:48;;;;;;;1.53;1.00;;;;;;;;;;10532373;28;20192;-70
2021/05/27 01:46:00;;;;;;;1.47;1.10;;;;;;;;;;10530697;28;20204;-72
2021/05/27 01:51:03;;;;;;;3.90;1.43;;;;;;;;;;10531774;28;20749;-71
2021/05/27 01:56:06;;;;;;;3.43;1.43;;;;;;;;;;10525495;28;20265;-72
2021/05/27 02:01:08;;;;;;;3.03;1.50;;;;;;;;;;10531510;28;20200;-69
2021/05/27 02:06:11;;;;;;;2.07;1.37;;;;;;;;;;10530247;28;20210;-69
2021/05/27 02:11:15;;;;;;;2.97;1.53;;;;;;;;;;10523698;28;20303;-70
2021/05/27 02:16:18;;;;;;;2.03;1.00;;;;;;;;;;10535766;28;20721;-68
2021/05/27 02:21:22;;;;;;;2.47;1.30;;;;;;;;;;10528393;28;20218;-70
2021/05/27 02:26:26;;;;;;;2.90;1.37;;;;;;;;;;10533538;28;20216;-70
2021/05/27 02:31:29;;;;;;;1.10;0.63;;;;;;;;;;10536142;28;20220;-69
2021/05/27 02:36:33;;;;;;;3.37;1.40;;;;;;;;;;10526330;28;20227;-68
2021/05/27 02:41:43;;;;;;;2.83;1.30;;;;;;;;;;10522761;28;20265;-68
2021/05/27 02:46:47;;;;;;;2.70;1.50;;;;;;;;;;10524488;28;20235;-71
2021/05/27 02:51:49;;;;;;;1.70;1.17;;;;;;;;;;10525600;28;20222;-69
2021/05/27 02:56:57;;;;;;;3.67;1.70;;;;;;;;;;10524600;28;20344;-71
2021/05/27 03:02:00;;;;;;;5.10;1.60;;;;;;;;;;10529241;28;20261;-70
2021/05/27 03:07:02;;;;;;;3.13;1.50;;;;;;;;;;10524081;28;20198;-70
2021/05/27 03:12:06;;;;;;;4.87;1.40;;;;;;;;;;10522387;28;20441;-70
2021/05/27 03:17:09;;;;;;;2.20;1.20;;;;;;;;;;10540329;28;20252;-70
2021/05/27 03:22:11;;;;;;;2.27;1.40;;;;;;;;;;10530163;28;20687;-69
2021/05/27 03:27:14;;;;;;;3.23;1.63;;;;;;;;;;10529099;28;20206;-70
2021/05/27 03:32:17;;;;;;;3.50;1.60;;;;;;;;;;10537823;28;20211;-70
2021/05/27 03:37:19;;;;;;;2.67;1.03;;;;;;;;;;10543811;28;20212;-70
2021/05/27 03:42:23;;;;;;;4.30;2.00;;;;;;;;;;10521859;28;20207;-69
2021/05/27 03:47:25;;;;;;;3.23;1.53;;;;;;;;;;10524724;28;20570;-71
2021/05/27 03:52:27;;;;;;;2.33;1.00;;;;;;;;;;10528873;28;20834;-71
2021/05/27 03:57:31;;;;;;;3.03;1.50;;;;;;;;;;10514242;28;20201;-71
2021/05/27 04:02:33;;;;;;;2.60;1.30;;;;;;;;;;10509763;28;20215;-70
2021/05/27 04:07:36;;;;;;;3.00;1.57;;;;;;;;;;10508641;28;20699;-69
2021/05/27 04:12:48;;;;;;;2.10;1.30;;;;;;;;;;10499423;28;20373;-69
2021/05/27 04:17:58;;;;;;;4.50;1.60;;;;;;;;;;10511324;28;20216;-72
2021/05/27 04:23:01;;;;;;;3.90;1.70;;;;;;;;;;10513965;28;20215;-71
2021/05/27 04:28:04;;;;;;;3.30;1.60;;;;;;;;;;10507331;28;20200;-70
2021/05/27 04:33:08;;;;;;;2.93;1.60;;;;;;;;;;10511100;28;20241;-71
2021/05/27 04:38:11;;;;;;;3.37;1.50;;;;;;;;;;10510253;28;20686;-67
2021/05/27 04:43:15;;;;;;;3.20;1.40;;;;;;;;;;10508990;28;20298;-67
2021/05/27 04:48:17;;;;;;;3.00;1.43;;;;;;;;;;10521824;28;20194;-67
2021/05/27 04:53:20;;;;;;;3.93;1.57;;;;;;;;;;10505785;28;20219;-69
2021/05/27 04:58:24;;;;;;;2.13;1.30;;;;;;;;;;10511316;28;20206;-67
2021/05/27 05:03:32;;;;;;;1.80;1.10;;;;;;;;;;10529380;28;20298;-69
2021/05/27 05:08:35;;;;;;;1.60;1.17;;;;;;;;;;10530316;28;20231;-70
2021/05/27 05:13:40;;;;;;;1.77;0.93;;;;;;;;;;10519997;28;20228;-70
2021/05/27 05:18:43;;;;;;;2.40;1.27;;;;;;;;;;10524779;28;20212;-70
2021/05/27 05:23:46;;;;;;;2.20;1.13;;;;;;;;;;10535767;28;20529;-70
2021/05/27 05:28:50;;;;;;;2.37;1.30;;;;;;;;;;10521540;28;20542;-69
2021/05/27 05:33:55;;;;;;;2.33;1.23;;;;;;;;;;10528813;28;20227;-68
2021/05/27 05:38:58;;;;;;;2.60;1.40;;;;;;;;;;10533354;28;20192;-69
2021/05/27 05:44:02;;;;;;;1.90;1.10;;;;;;;;;;10516554;28;20241;-69
2021/05/27 05:49:05;;;;;;;1.97;1.20;;;;;;;;;;10534687;28;20207;-72
2021/05/27 05:54:08;;;;;;;1.83;1.20;;;;;;;;;;10534957;28;20211;-71
2021/05/27 05:59:12;;;;;;;5.03;1.50;;;;;;;;;;10550928;27;20348;-70
2021/05/27 06:04:20;;;;;;;2.00;1.37;;;;;;;;;;10545120;28;20744;-71
2021/05/27 06:09:24;;;;;;;3.47;1.67;;;;;;;;;;10533538;28;20651;-71
2021/05/27 06:14:28;;;;;;;1.77;1.20;;;;;;;;;;10529667;28;20273;-71
2021/05/27 06:19:30;;;;;;;2.47;1.20;;;;;;;;;;10534303;28;20306;-71
2021/05/27 06:24:32;;;;;;;2.77;1.20;;;;;;;;;;10531252;28;20218;-68
2021/05/27 06:29:36;;;;;;;1.43;1.00;;;;;;;;;;10525068;28;20566;-71
2021/05/27 06:34:41;;;;;;;3.23;1.70;;;;;;;;;;10537884;28;20644;-69
2021/05/27 06:39:46;;;;;;;2.03;1.07;;;;;;;;;;10532615;28;20209;-70
2021/05/27 06:44:52;;;;;;;2.73;0.87;;;;;;;;;;10525933;28;20223;-71
2021/05/27 06:49:55;;;;;;;2.40;1.43;;;;;;;;;;10521204;28;20586;-69
2021/05/27 06:54:57;;;;;;;1.03;0.80;;;;;;;;;;10523566;28;20728;-68
2021/05/27 07:00:00;;;;;;;2.63;1.10;;;;;;;;;;10534664;28;20195;-71
2021/05/27 07:05:03;;;;;;;1.37;1.00;;;;;;;;;;10522755;28;20223;-70
2021/05/27 07:10:07;;;;;;;2.17;1.20;;;;;;;;;;10527099;28;20563;-69
2021/05/27 07:15:11;;;;;;;1.93;0.97;;;;;;;;;;10531047;28;20759;-70
2021/05/27 07:20:14;;;;;;;1.60;0.97;;;;;;;;;;10517598;28;20208;-69
2021/05/27 07:25:16;;;;;;;1.70;1.10;;;;;;;;;;10530481;28;20294;-70
2021/05/27 07:30:24;;;;;;;2.23;1.07;;;;;;;;;;10512594;28;20292;-70
2021/05/27 07:35:27;;;;;;;1.37;1.10;;;;;;;;;;10522647;28;20256;-71
2021/05/27 07:40:31;;;;;;;1.33;0.90;;;;;;;;;;10529528;28;20237;-70
2021/05/27 07:45:34;;;;;;;3.57;1.17;;;;;;;;;;10532635;28;20211;-67
2021/05/27 07:50:37;;;;;;;2.23;1.20;;;;;;;;;;10523842;28;20295;-69
2021/05/27 07:55:39;;;;;;;2.03;1.10;;;;;;;;;;10532104;28;20689;-69
2021/05/27 08:00:42;;;;;;;2.07;1.10;;;;;;;;;;10524713;28;20200;-70
2021/05/27 08:05:45;;;;;;;2.47;1.27;;;;;;;;;;10524597;28;20207;-67
2021/05/27 08:10:47;;;;;;;1.67;1.00;;;;;;;;;;10521114;28;20362;-70
2021/05/27 08:15:50;;;;;;;2.33;1.00;;;;;;;;;;10522739;28;20528;-69
2021/05/27 08:20:52;;;;;;;1.23;0.80;;;;;;;;;;10525806;28;20203;-71
2021/05/27 08:25:54;;;;;;;1.50;0.87;;;;;;;;;;10520867;28;20212;-71
2021/05/27 08:31:01;;;;;;;1.30;0.90;;;;;;;;;;10515895;28;20286;-71
2021/05/27 08:36:04;;;;;;;1.63;0.87;;;;;;;;;;10526410;28;20203;-71
2021/05/27 08:41:06;;;;;;;2.30;0.93;;;;;;;;;;10524196;28;20287;-70
2021/05/27 08:46:09;;;;;;;0.80;0.73;;;;;;;;;;10522145;28;20211;-70
2021/05/27 08:51:12;;;;;;;1.20;0.83;;;;;;;;;;10516691;28;20198;-70
2021/05/27 08:56:14;;;;;;;1.40;0.87;;;;;;;;;;10518451;28;20244;-69
2021/05/27 09:01:21;;;;;;;2.00;0.83;;;;;;;;;;10516300;28;20541;-69
2021/05/27 09:06:24;;;;;;;1.67;0.80;;;;;;;;;;10523538;28;20199;-70
2021/05/27 09:11:34;;;;;;;3.60;1.10;;;;;;;;;;10515446;28;20273;-69
2021/05/27 09:16:39;;;;;;;2.00;0.97;;;;;;;;;;10517500;28;20203;-70
2021/05/27 09:21:42;;;;;;;1.87;0.90;;;;;;;;;;10529576;28;20219;-70
2021/05/27 09:26:50;;;;;;;3.50;1.13;;;;;;;;;;10525697;28;20195;-70
2021/05/27 09:31:58;;;;;;;1.47;1.10;;;;;;;;;;10532710;28;20212;-69
2021/05/27 09:37:00;;;;;;;2.27;1.10;;;;;;;;;;10526830;28;20290;-71
2021/05/27 09:42:03;;;;;;;1.53;1.10;;;;;;;;;;10527780;28;20207;-72
2021/05/27 09:47:08;;;;;;;1.97;0.90;;;;;;;;;;10524275;28;21691;-71
2021/05/27 09:52:15;;;;;;;2.37;1.00;;;;;;;;;;10527358;28;20294;-71
2021/05/27 09:57:21;;;;;;;1.93;1.03;;;;;;;;;;10532622;28;20243;-69
2021/05/27 10:02:23;;;;;;;2.27;1.30;;;;;;;;;;10520592;28;20283;-72
2021/05/27 10:07:35;;;;;;;2.97;1.03;;;;;;;;;;10523797;28;20220;-68
2021/05/27 10:12:54;;;;;;;3.30;1.23;;;;;;;;;;10519186;28;20220;-70
2021/05/27 10:18:00;;;;;;;2.57;1.30;;;;;;;;;;10524737;28;20206;-71
2021/05/27 10:23:04;;;;;;;1.87;1.10;;;;;;;;;;10526788;28;20220;-71
2021/05/27 10:28:08;;;;;;;1.07;0.90;;;;;;;;;;10527243;28;20276;-70
2021/05/27 10:33:17;;;;;;;1.00;0.90;;;;;;;;;;10527960;28;20851;-67
2021/05/27 10:38:34;;;;;;;1.60;1.07;;;;;;;;;;10525281;28;20211;-69
2021/05/27 10:43:36;;;;;;;1.77;1.20;;;;;;;;;;10524378;28;20219;-71
2021/05/27 10:48:40;;;;;;;2.43;1.20;;;;;;;;;;10526947;28;20192;-71
2021/05/27 10:53:48;;;;;;;2.60;1.10;;;;;;;;;;10523485;28;20311;-71
2021/05/27 10:59:12;;;;;;;1.27;1.00;;;;;;;;;;10527122;28;20216;-70
2021/05/27 11:04:22;;;;;;;1.77;1.50;;;;;;;;;;10525991;28;20215;-70
2021/05/27 11:09:33;;;;;;;2.30;1.13;;;;;;;;;;10526422;28;20286;-71
2021/05/27 11:14:38;;;;;;;1.53;1.10;;;;;;;;;;10527003;28;20222;-69
2021/05/27 11:19:43;;;;;;;2.37;1.10;;;;;;;;;;10515929;28;20758;-67
2021/05/27 11:25:07;;;;;;;1.33;1.10;;;;;;;;;;10519001;28;20257;-70
2021/05/27 11:30:13;;;;;;;2.77;1.30;;;;;;;;;;10519253;28;20230;-71
2021/05/27 11:35:17;;;;;;;1.80;1.10;;;;;;;;;;10521427;28;20699;-70
2021/05/27 11:40:20;;;;;;;1.63;0.93;;;;;;;;;;10520821;28;20271;-70
2021/05/27 11:45:23;;;;;;;1.97;1.30;;;;;;;;;;10521587;28;20220;-72
2021/05/27 11:50:26;;;;;;;2.40;1.20;;;;;;;;;;10524284;28;20663;-70
2021/05/27 11:55:28;;;;;;;0.50;0.50;;;;;;;;;;10510719;28;20299;-70
2021/05/27 12:00:33;;;;;;;1.27;0.90;;;;;;;;;;10521174;28;20217;-71
2021/05/27 12:05:37;;;;;;;1.50;0.97;;;;;;;;;;10525802;28;20224;-71
2021/05/27 12:10:50;;;;;;;1.10;1.00;;;;;;;;;;10522228;28;20208;-71
2021/05/27 12:15:54;;;;;;;2.70;1.38;;;;;;;;;;10524966;28;20222;-71
2021/05/27 12:20:57;;;;;;;1.13;1.02;;;;;;;;;;10523998;28;20212;-72
2021/05/27 12:26:00;;;;;;;2.63;1.27;;;;;;;;;;10524772;28;20234;-70
2021/05/27 12:31:02;;;;;;;1.20;1.10;;;;;;;;;;10523140;28;20265;-71
2021/05/27 12:36:06;;;;;;;1.23;1.13;;;;;;;;;;10520863;28;20207;-70
2021/05/27 12:41:09;;;;;;;1.98;1.00;;;;;;;;;;10522484;28;20272;-71
2021/05/27 12:46:16;;;;;;;1.40;1.30;;;;;;;;;;10541835;28;20667;-70
2021/05/27 12:51:20;;;;;;;2.15;1.20;;;;;;;;;;10522499;28;20683;-71
2021/05/27 12:56:23;;;;;;;1.50;1.10;;;;;;;;;;10523090;28;20200;-71
2021/05/27 13:01:29;;;;;;;1.40;1.13;;;;;;;;;;10524515;28;20334;-69
2021/05/27 13:06:34;;;;;;;1.30;1.20;;;;;;;;;;10520005;28;20593;-69
2021/05/27 13:11:37;;;;;;;1.52;1.30;;;;;;;;;;10518919;28;20231;-70
2021/05/27 13:16:40;;;;;;;2.08;1.10;;;;;;;;;;10528144;28;20238;-71
2021/05/27 13:21:45;;;;;;;2.28;1.10;;;;;;;;;;10520101;28;20223;-69
2021/05/27 13:26:59;;;;;;;1.20;1.10;;;;;;;;;;10529538;28;20260;-70
2021/05/27 13:32:02;;;;;;;2.10;1.10;;;;;;;;;;10527789;28;20235;-71
2021/05/27 13:37:04;;;;;;;1.85;1.15;;;;;;;;;;10531078;28;20714;-70
2021/05/27 13:42:07;;;;;;;1.73;1.17;;;;;;;;;;10526494;28;20222;-70
2021/05/27 13:47:09;;;;;;;1.60;1.13;;;;;;;;;;10524719;28;20246;-70
2021/05/27 13:52:12;;;;;;;2.37;1.10;;;;;;;;;;10526747;28;20212;-71
2021/05/27 13:57:14;;;;;;;2.10;1.00;;;;;;;;;;10525965;28;20218;-69
2021/05/27 14:02:17;;;;;;;3.17;1.13;;;;;;;;;;10524002;28;20699;-70
2021/05/27 14:07:20;;;;;;;2.40;1.37;;;;;;;;;;10527350;28;20227;-68
2021/05/27 14:12:22;;;;;;;1.90;1.17;;;;;;;;;;10530371;28;20247;-69
2021/05/27 14:17:24;;;;;;;2.50;1.17;;;;;;;;;;10527959;28;20283;-70
2021/05/27 14:22:28;;;;;;;0.97;0.70;;;;;;;;;;10533462;28;20223;-71
2021/05/27 14:27:30;;;;;;;3.20;1.10;;;;;;;;;;10538637;28;20192;-69
2021/05/27 14:32:32;;;;;;;1.50;1.13;;;;;;;;;;10526592;28;20239;-69
2021/05/27 14:37:35;;;;;;;2.20;1.20;;;;;;;;;;10527817;28;20211;-70
2021/05/27 14:42:38;;;;;;;1.33;1.20;;;;;;;;;;10525929;28;20246;-70
2021/05/27 14:47:40;;;;;;;1.83;1.00;;;;;;;;;;10523143;28;20222;-69
2021/05/27 14:52:44;;;;;;;3.03;1.00;;;;;;;;;;10526134;28;20223;-69
2021/05/27 14:57:46;;;;;;;2.60;1.10;;;;;;;;;;10518281;28;20287;-69
2021/05/27 15:02:48;;;;;;;1.97;1.13;;;;;;;;;;10528383;28;20629;-70
2021/05/27 15:07:51;;;;;;;1.57;1.10;;;;;;;;;;10533432;28;20536;-67
2021/05/27 15:12:53;;;;;;;1.30;1.10;;;;;;;;;;10518352;28;20672;-69
2021/05/27 15:17:55;;;;;;;2.20;0.97;;;;;;;;;;10525502;28;20931;-70
2021/05/27 15:22:58;;;;;;;1.37;1.10;;;;;;;;;;10524646;28;20555;-70
2021/05/27 15:28:02;;;;;;;1.13;1.03;;;;;;;;;;10524775;28;20192;-69
2021/05/27 15:33:08;;;;;;;2.00;1.00;;;;;;;;;;10518832;28;20330;-70
2021/05/27 15:38:12;;;;;;;2.40;1.20;;;;;;;;;;10515611;28;20218;-68
2021/05/27 15:43:14;;;;;;;2.13;1.20;;;;;;;;;;10524523;28;20929;-69
2021/05/27 15:48:18;;;;;;;1.47;1.00;;;;;;;;;;10521187;28;20741;-70
2021/05/27 15:53:23;;;;;;;1.40;1.00;;;;;;;;;;10525692;28;20224;-71
2021/05/27 15:58:25;;;;;;;2.47;1.10;;;;;;;;;;10528829;28;20716;-68
2021/05/27 16:03:27;;;;;;;2.10;1.30;;;;;;;;;;10510746;28;20220;-71
2021/05/27 16:08:31;;;;;;;2.37;1.40;;;;;;;;;;10526740;28;20184;-68
2021/05/27 16:13:33;;;;;;;3.53;1.77;;;;;;;;;;10523826;28;20234;-70
2021/05/27 16:18:35;;;;;;;6.33;2.90;;;;;;;;;;10524011;28;20223;-71
2021/05/27 16:23:38;;;;;;;2.33;1.60;;;;;;;;;;10516220;28;20289;-68
2021/05/27 16:28:41;;;;;;;2.37;1.60;;;;;;;;;;10523027;28;20226;-68
2021/05/27 16:33:45;;;;;;;2.67;1.50;;;;;;;;;;10526375;28;20687;-68
2021/05/27 16:38:48;;;;;;;2.73;1.60;;;;;;;;;;10526410;28;20227;-68
2021/05/27 16:43:50;;;;;;;3.00;1.70;;;;;;;;;;10533491;28;20218;-70
2021/05/27 16:48:54;;;;;;;4.13;1.70;;;;;;;;;;10524906;28;20188;-70
2021/05/27 16:53:57;;;;;;;6.77;2.97;;;;;;;;;;10522564;28;20211;-69
2021/05/27 16:58:59;;;;;;;8.77;4.40;;;;;;;;;;10525937;28;20635;-70
2021/05/27 17:04:03;;;;;;;2.03;1.00;;;;;;;;;;10521674;28;20219;-70
2021/05/27 17:09:06;;;;;;;3.50;1.50;;;;;;;;;;10517880;28;20191;-69
2021/05/27 17:14:08;;;;;;;2.90;1.30;;;;;;;;;;10523677;28;20729;-70
2021/05/27 17:19:10;;;;;;;2.83;1.60;;;;;;;;;;10527733;28;20207;-71
2021/05/27 17:24:13;;;;;;;2.80;1.60;;;;;;;;;;10520888;28;20242;-69
2021/05/27 17:29:15;;;;;;;3.40;1.60;;;;;;;;;;10520799;28;20220;-70
2021/05/27 17:34:17;;;;;;;3.40;1.70;;;;;;;;;;10517749;28;20211;-69
2021/05/27 17:39:22;;;;;;;2.60;1.40;;;;;;;;;;10524989;28;20647;-68
2021/05/27 17:44:24;;;;;;;4.53;1.60;;;;;;;;;;10523494;28;20554;-69
2021/05/27 17:49:26;;;;;;;3.30;1.60;;;;;;;;;;10520686;28;20253;-70
2021/05/27 17:54:29;;;;;;;4.13;2.43;;;;;;;;;;10515897;28;20271;-69
2021/05/27 17:59:31;;;;;;;3.77;1.40;;;;;;;;;;10525210;28;20238;-68
2021/05/27 18:04:33;;;;;;;2.37;1.30;;;;;;;;;;10526361;28;20304;-69
2021/05/27 18:09:36;;;;;;;3.03;1.30;;;;;;;;;;10530158;28;20679;-69
2021/05/27 18:14:38;;;;;;;2.30;1.60;;;;;;;;;;10526962;28;20650;-69
2021/05/27 18:19:40;;;;;;;2.63;1.43;;;;;;;;;;10517820;28;20225;-68
2021/05/27 18:24:43;;;;;;;3.70;1.40;;;;;;;;;;10527508;28;20294;-71
2021/05/27 18:29:45;;;;;;;4.00;1.83;;;;;;;;;;10530369;28;20199;-71
2021/05/27 18:34:47;;;;;;;4.07;1.80;;;;;;;;;;10525441;28;20706;-70
2021/05/27 18:39:50;;;;;;;3.47;1.57;;;;;;;;;;10521120;28;20235;-70
2021/05/27 18:44:52;;;;;;;7.27;3.90;;;;;;;;;;10527070;28;20718;-69
2021/05/27 18:49:55;;;;;;;4.10;1.50;;;;;;;;;;10522491;28;20241;-68
2021/05/27 18:54:57;;;;;;;4.57;1.90;;;;;;;;;;10519962;28;20211;-71
2021/05/27 19:00:00;;;;;;;4.57;2.10;;;;;;;;;;10524943;28;20280;-70
2021/05/27 19:05:03;;;;;;;3.90;2.00;;;;;;;;;;10519192;28;20216;-70
2021/05/27 19:10:08;;;;;;;4.37;1.80;;;;;;;;;;10528470;28;21406;-69
2021/05/27 19:15:11;;;;;;;3.63;2.10;;;;;;;;;;10524318;28;20216;-70
2021/05/27 19:20:14;;;;;;;3.77;1.80;;;;;;;;;;10522354;28;20208;-69
2021/05/27 19:25:18;;;;;;;3.87;2.20;;;;;;;;;;10522424;28;20322;-70
2021/05/27 19:30:21;;;;;;;4.47;2.13;;;;;;;;;;10523745;28;20190;-70
2021/05/27 19:35:23;;;;;;;3.07;1.73;;;;;;;;;;10525765;28;20234;-70
2021/05/27 19:40:26;;;;;;;3.80;1.80;;;;;;;;;;10519918;28;20212;-69
2021/05/27 19:45:28;;;;;;;8.70;4.13;;;;;;;;;;10522024;28;20281;-70
2021/05/27 19:50:31;;;;;;;5.17;1.90;;;;;;;;;;10521281;28;20321;-70
2021/05/27 19:55:42;;;;;;;4.07;1.97;;;;;;;;;;10517100;28;20211;-70
2021/05/27 20:00:44;;;;;;;6.80;2.70;;;;;;;;;;10524149;28;20238;-71
2021/05/27 20:05:46;;;;;;;4.70;2.17;;;;;;;;;;10524001;28;20219;-70
2021/05/27 20:10:49;;;;;;;4.27;1.97;;;;;;;;;;10524927;28;20639;-69
2021/05/27 20:15:53;;;;;;;7.93;3.80;;;;;;;;;;10518218;28;20261;-70
2021/05/27 20:20:55;;;;;;;3.20;1.80;;;;;;;;;;10516760;28;20245;-69
2021/05/27 20:25:58;;;;;;;3.13;1.70;;;;;;;;;;10526982;28;20239;-71
2021/05/27 20:31:00;;;;;;;4.23;1.93;;;;;;;;;;10521677;28;20195;-68
2021/05/27 20:36:03;;;;;;;3.90;2.00;;;;;;;;;;10520922;28;20686;-69
2021/05/27 20:41:06;;;;;;;5.70;2.20;;;;;;;;;;10521048;28;20237;-70
2021/05/27 20:46:08;;;;;;;4.03;1.90;;;;;;;;;;10522166;28;20274;-68
2021/05/27 20:51:10;;;;;;;5.27;2.43;;;;;;;;;;10528476;28;20211;-69
2021/05/27 20:56:13;;;;;;;4.57;2.33;;;;;;;;;;10515545;28;20203;-69
2021/05/27 21:01:15;;;;;;;4.20;2.33;;;;;;;;;;10514635;28;20279;-69
2021/05/27 21:06:19;;;;;;;5.40;2.40;;;;;;;;;;10514455;28;20242;-68
2021/05/27 21:11:22;;;;;;;4.57;2.00;;;;;;;;;;10512005;28;20196;-69
2021/05/27 21:16:24;;;;;;;5.43;2.30;;;;;;;;;;10525493;28;20396;-70
2021/05/27 21:21:26;;;;;;;5.63;2.30;;;;;;;;;;10517295;28;20207;-69
2021/05/27 21:26:29;;;;;;;4.53;2.30;;;;;;;;;;10531005;28;20279;-69
2021/05/27 21:31:31;;;;;;;6.23;2.80;;;;;;;;;;10519089;28;20319;-68
2021/05/27 21:36:33;;;;;;;6.53;2.90;;;;;;;;;;10524120;28;20196;-70
2021/05/27 21:41:36;;;;;;;6.57;2.83;;;;;;;;;;10532393;28;20215;-69
2021/05/27 21:46:39;;;;;;;6.30;2.60;;;;;;;;;;10524347;28;20196;-70
2021/05/27 21:51:41;;;;;;;5.23;2.40;;;;;;;;;;10532962;28;20212;-69
2021/05/27 21:56:44;;;;;;;6.37;2.70;;;;;;;;;;10513266;28;20197;-69
2021/05/27 22:01:46;;;;;;;5.40;2.80;;;;;;;;;;10523441;28;20243;-70
2021/05/27 22:06:48;;;;;;;4.67;2.50;;;;;;;;;;10532309;28;20635;-70
2021/05/27 22:11:51;;;;;;;5.97;2.60;;;;;;;;;;10529839;28;20223;-67
2021/05/27 22:17:14;;;;;;;4.40;2.33;;;;;;;;;;10528152;28;20192;-70
2021/05/27 22:22:24;;;;;;;4.37;2.40;;;;;;;;;;10528589;28;20220;-70
2021/05/27 22:27:27;;;;;;;5.47;2.47;;;;;;;;;;10514169;28;20195;-70
2021/05/27 22:32:30;;;;;;;5.07;2.47;;;;;;;;;;10530637;28;20228;-70
2021/05/27 22:37:32;;;;;;;4.70;2.67;;;;;;;;;;10528420;28;20192;-69
2021/05/27 22:42:35;;;;;;;4.33;2.47;;;;;;;;;;10528805;28;20228;-70
2021/05/27 22:47:38;;;;;;;5.33;2.47;;;;;;;;;;10527955;28;20576;-70
2021/05/27 22:52:40;;;;;;;6.53;2.97;;;;;;;;;;10520322;28;20242;-68
2021/05/27 22:57:44;;;;;;;5.53;2.97;;;;;;;;;;10528756;28;20256;-70
2021/05/27 23:02:46;;;;;;;5.00;2.50;;;;;;;;;;10525475;28;20294;-68
2021/05/27 23:07:48;;;;;;;6.00;2.70;;;;;;;;;;10525957;28;20237;-69
2021/05/27 23:12:51;;;;;;;5.53;2.60;;;;;;;;;;10527337;28;20595;-70
2021/05/27 23:17:53;;;;;;;5.37;2.80;;;;;;;;;;10526642;28;20279;-69
2021/05/27 23:22:55;;;;;;;7.97;3.23;;;;;;;;;;10529438;28;20242;-69
2021/05/27 23:27:58;;;;;;;5.37;3.00;;;;;;;;;;10530228;28;20252;-70
2021/05/27 23:33:00;;;;;;;5.70;2.70;;;;;;;;;;10527429;28;20295;-67
2021/05/27 23:38:02;;;;;;;5.37;2.83;;;;;;;;;;10525072;28;20608;-69
2021/05/27 23:43:05;;;;;;;5.30;2.70;;;;;;;;;;10526745;28;20220;-69
2021/05/27 23:48:08;;;;;;;5.50;2.67;;;;;;;;;;10527393;28;20195;-69
2021/05/27 23:53:10;;;;;;;5.27;2.70;;;;;;;;;;10530155;28;20238;-70
2021/05/27 23:58:13;;;;;;;5.07;2.53;;;;;;;;;;10524195;28;20268;-68
